Time;durP1;ratioP1;P1;durP2;ratioP2;P2;SDS_P1;SDS_P2;PMS_P1;PMS_P2;Temp;Humidity;BMP_temperature;BMP_pressure;BME280_temperature;BME280_humidity;BME280_pressure;Samples;Min_cycle;Max_cycle;Signal;HPM_P1;HPM_P2
2022/01/07 00:01:51;;;;;;;19.33;6.55;;;;;;;;;;5022626;28;20380;-76
2022/01/07 00:04:17;;;;;;;20.10;7.10;;;;;;;;;;5058774;28;20123;-77
2022/01/07 00:06:43;;;;;;;18.10;7.05;;;;;;;;;;5039696;28;20079;-76
2022/01/07 00:09:09;;;;;;;17.05;6.30;;;;;;;;;;5040406;28;20083;-76
2022/01/07 00:11:35;;;;;;;21.38;6.68;;;;;;;;;;5039570;28;20041;-76
2022/01/07 00:14:01;;;;;;;19.45;7.07;;;;;;;;;;5039097;28;20365;-76
2022/01/07 00:16:27;;;;;;;18.95;7.22;;;;;;;;;;5058347;28;20041;-76
2022/01/07 00:18:53;;;;;;;24.60;7.30;;;;;;;;;;5043611;28;20048;-79
2022/01/07 00:21:20;;;;;;;24.02;7.25;;;;;;;;;;5046191;28;20112;-78
2022/01/07 00:23:46;;;;;;;19.95;7.15;;;;;;;;;;5060467;28;20044;-77
2022/01/07 00:26:12;;;;;;;24.33;7.15;;;;;;;;;;5038649;28;20037;-75
2022/01/07 00:28:38;;;;;;;20.92;7.03;;;;;;;;;;5040164;28;20041;-77
2022/01/07 00:31:04;;;;;;;17.05;5.93;;;;;;;;;;5040590;28;20037;-78
2022/01/07 00:33:30;;;;;;;18.65;5.97;;;;;;;;;;5042534;28;20045;-79
2022/01/07 00:35:57;;;;;;;21.00;6.20;;;;;;;;;;5027533;28;20059;-79
2022/01/07 00:38:23;;;;;;;18.15;6.15;;;;;;;;;;5061775;28;20124;-77
2022/01/07 00:40:49;;;;;;;25.17;7.00;;;;;;;;;;5044945;28;20043;-78
2022/01/07 00:43:15;;;;;;;20.13;6.45;;;;;;;;;;5043487;28;20068;-80
2022/01/07 00:45:41;;;;;;;17.40;6.07;;;;;;;;;;5043815;28;20120;-80
2022/01/07 00:48:07;;;;;;;17.30;6.00;;;;;;;;;;5052034;28;20053;-78
2022/01/07 00:50:33;;;;;;;20.52;6.35;;;;;;;;;;5068856;28;20102;-79
2022/01/07 00:53:00;;;;;;;16.92;6.75;;;;;;;;;;5067843;28;20037;-76
2022/01/07 00:55:26;;;;;;;19.15;6.47;;;;;;;;;;5057269;28;20043;-75
2022/01/07 00:57:52;;;;;;;22.35;6.43;;;;;;;;;;5048346;28;20032;-76
2022/01/07 01:00:19;;;;;;;18.73;6.45;;;;;;;;;;5023717;28;20045;-75
2022/01/07 01:02:45;;;;;;;19.20;6.00;;;;;;;;;;5023362;28;20063;-76
2022/01/07 01:05:11;;;;;;;16.70;6.05;;;;;;;;;;5046973;28;20041;-76
2022/01/07 01:07:37;;;;;;;15.60;6.05;;;;;;;;;;5038195;28;20076;-76
2022/01/07 01:10:07;;;;;;;14.70;6.03;;;;;;;;;;5038359;28;20090;-78
2022/01/07 01:12:33;;;;;;;17.63;6.18;;;;;;;;;;5038382;28;20368;-76
2022/01/07 01:14:59;;;;;;;18.13;6.05;;;;;;;;;;5021274;28;20037;-76
2022/01/07 01:17:25;;;;;;;21.15;6.45;;;;;;;;;;5037931;28;20098;-75
2022/01/07 01:19:51;;;;;;;24.90;6.95;;;;;;;;;;5037973;28;20052;-76
2022/01/07 01:22:17;;;;;;;16.25;6.18;;;;;;;;;;5037895;28;20063;-76
2022/01/07 01:24:43;;;;;;;16.35;6.50;;;;;;;;;;5037938;28;20045;-76
2022/01/07 01:27:08;;;;;;;17.20;6.07;;;;;;;;;;5020878;28;20040;-76
2022/01/07 01:29:35;;;;;;;14.60;6.15;;;;;;;;;;5021062;28;20048;-77
2022/01/07 01:32:01;;;;;;;16.75;6.10;;;;;;;;;;5037748;28;20040;-77
2022/01/07 01:34:27;;;;;;;16.83;6.65;;;;;;;;;;5055087;28;20060;-77
2022/01/07 01:36:53;;;;;;;16.73;6.22;;;;;;;;;;5054988;28;20037;-76
2022/01/07 01:39:19;;;;;;;18.98;6.05;;;;;;;;;;5037349;28;20037;-77
2022/01/07 01:41:44;;;;;;;17.90;6.78;;;;;;;;;;5037318;28;20040;-76
2022/01/07 01:44:11;;;;;;;18.13;6.70;;;;;;;;;;5054970;28;20037;-77
2022/01/07 01:46:37;;;;;;;19.45;6.65;;;;;;;;;;5036694;28;20049;-76
2022/01/07 01:49:03;;;;;;;12.65;5.47;;;;;;;;;;5022474;28;20060;-76
2022/01/07 01:51:29;;;;;;;21.00;6.80;;;;;;;;;;5038946;28;20040;-78
2022/01/07 01:53:55;;;;;;;17.25;6.47;;;;;;;;;;5040207;28;20091;-78
2022/01/07 01:56:21;;;;;;;18.65;6.22;;;;;;;;;;5041093;28;20048;-79
2022/01/07 01:58:48;;;;;;;19.40;6.53;;;;;;;;;;5024571;28;20069;-79
2022/01/07 02:01:15;;;;;;;19.48;6.55;;;;;;;;;;5059450;28;20033;-79
2022/01/07 02:03:41;;;;;;;17.15;6.90;;;;;;;;;;5025404;28;20068;-78
2022/01/07 02:06:07;;;;;;;18.33;6.00;;;;;;;;;;5058761;28;20041;-79
2022/01/07 02:08:35;;;;;;;18.52;6.53;;;;;;;;;;5023126;28;20071;-80
2022/01/07 02:11:01;;;;;;;16.92;6.90;;;;;;;;;;5041086;28;20045;-79
2022/01/07 02:13:27;;;;;;;14.77;6.38;;;;;;;;;;5058570;28;20055;-79
2022/01/07 02:15:53;;;;;;;19.02;6.78;;;;;;;;;;5025041;28;20029;-79
2022/01/07 02:18:19;;;;;;;16.13;6.03;;;;;;;;;;5059408;28;20353;-78
2022/01/07 02:20:46;;;;;;;18.92;6.75;;;;;;;;;;5027784;28;20033;-79
2022/01/07 02:23:12;;;;;;;19.40;6.78;;;;;;;;;;5044283;28;20033;-78
2022/01/07 02:25:37;;;;;;;19.80;6.72;;;;;;;;;;5044649;28;20113;-80
2022/01/07 02:28:04;;;;;;;18.30;6.55;;;;;;;;;;5045982;28;20094;-78
2022/01/07 02:30:30;;;;;;;22.30;6.53;;;;;;;;;;5028608;28;20052;-79
2022/01/07 02:32:56;;;;;;;15.57;6.18;;;;;;;;;;5044113;28;20313;-78
2022/01/07 02:35:23;;;;;;;16.10;6.60;;;;;;;;;;5063816;28;20052;-78
2022/01/07 02:37:49;;;;;;;16.67;6.15;;;;;;;;;;5028992;28;20037;-78
2022/01/07 02:40:15;;;;;;;17.92;6.43;;;;;;;;;;5044757;28;20048;-79
2022/01/07 02:42:40;;;;;;;13.55;6.00;;;;;;;;;;5046237;28;20037;-79
2022/01/07 02:45:08;;;;;;;16.40;6.35;;;;;;;;;;5028094;28;20454;-79
2022/01/07 02:47:52;;;;;;;16.52;6.28;;;;;;;;;;5045541;28;20120;-79
2022/01/07 02:50:19;;;;;;;20.20;7.35;;;;;;;;;;5028119;28;20567;-79
2022/01/07 02:52:45;;;;;;;18.65;6.93;;;;;;;;;;5043702;28;20045;-79
2022/01/07 02:55:11;;;;;;;19.90;6.72;;;;;;;;;;5043393;28;20338;-78
2022/01/07 02:57:37;;;;;;;14.98;6.30;;;;;;;;;;5025620;28;20117;-78
2022/01/07 03:00:04;;;;;;;23.42;6.60;;;;;;;;;;5061979;28;20091;-80
2022/01/07 03:02:30;;;;;;;17.45;6.63;;;;;;;;;;5043780;28;20048;-78
2022/01/07 03:04:56;;;;;;;21.30;7.20;;;;;;;;;;5061616;28;20322;-79
2022/01/07 03:07:22;;;;;;;19.83;7.47;;;;;;;;;;5044596;28;20091;-78
2022/01/07 03:09:48;;;;;;;18.20;7.40;;;;;;;;;;5044211;28;20440;-79
2022/01/07 03:12:14;;;;;;;20.65;7.70;;;;;;;;;;5044298;28;20094;-79
2022/01/07 03:14:40;;;;;;;16.42;7.30;;;;;;;;;;5028359;28;20068;-79
2022/01/07 03:17:06;;;;;;;15.98;7.55;;;;;;;;;;5044448;28;20041;-79
2022/01/07 03:19:32;;;;;;;18.38;7.28;;;;;;;;;;5025330;28;20044;-79
2022/01/07 03:21:58;;;;;;;18.67;7.63;;;;;;;;;;5043190;28;20041;-80
2022/01/07 03:24:24;;;;;;;20.23;7.55;;;;;;;;;;5044254;28;20037;-79
2022/01/07 03:26:50;;;;;;;18.75;7.80;;;;;;;;;;5028879;28;20072;-81
2022/01/07 03:29:16;;;;;;;22.13;8.40;;;;;;;;;;5044776;28;20376;-78
2022/01/07 03:31:42;;;;;;;22.27;8.18;;;;;;;;;;5042241;28;20051;-78
2022/01/07 03:34:08;;;;;;;22.55;9.25;;;;;;;;;;5028094;28;20102;-79
2022/01/07 03:36:34;;;;;;;23.52;8.98;;;;;;;;;;5044809;28;20040;-79
2022/01/07 03:39:01;;;;;;;20.17;8.00;;;;;;;;;;5044853;28;20044;-80
2022/01/07 03:41:27;;;;;;;22.40;8.80;;;;;;;;;;5027706;28;20369;-80
2022/01/07 03:43:53;;;;;;;23.85;9.00;;;;;;;;;;5028058;28;20037;-79
2022/01/07 03:46:19;;;;;;;21.17;8.18;;;;;;;;;;5044441;28;20041;-79
2022/01/07 03:48:45;;;;;;;22.75;8.50;;;;;;;;;;5020679;28;20142;-79
2022/01/07 03:51:11;;;;;;;22.08;8.75;;;;;;;;;;5004035;28;20077;-79
2022/01/07 03:53:37;;;;;;;21.38;8.93;;;;;;;;;;5020689;28;20049;-78
2022/01/07 03:56:03;;;;;;;20.73;8.70;;;;;;;;;;5020164;28;20065;-80
2022/01/07 03:58:29;;;;;;;21.58;9.02;;;;;;;;;;5020177;28;20053;-78
2022/01/07 04:00:55;;;;;;;18.75;8.73;;;;;;;;;;5002439;28;20038;-80
2022/01/07 04:03:21;;;;;;;23.83;8.50;;;;;;;;;;5018762;28;20104;-78
2022/01/07 04:05:48;;;;;;;18.80;8.63;;;;;;;;;;5023424;28;20050;-80
2022/01/07 04:08:14;;;;;;;15.73;8.05;;;;;;;;;;5019945;28;20034;-78
2022/01/07 04:10:40;;;;;;;19.58;8.60;;;;;;;;;;5019609;28;20438;-79
2022/01/07 04:13:06;;;;;;;22.05;8.50;;;;;;;;;;5004595;28;20038;-78
2022/01/07 04:15:32;;;;;;;16.48;7.63;;;;;;;;;;5005460;28;20041;-81
2022/01/07 04:17:58;;;;;;;17.65;8.02;;;;;;;;;;5020976;28;20052;-79
2022/01/07 04:20:25;;;;;;;17.33;7.43;;;;;;;;;;5022257;28;20129;-79
2022/01/07 04:22:51;;;;;;;21.58;8.85;;;;;;;;;;5023036;28;20038;-79
2022/01/07 04:25:17;;;;;;;23.38;8.48;;;;;;;;;;5021754;28;20159;-79
2022/01/07 04:27:47;;;;;;;17.02;8.65;;;;;;;;;;5022536;28;20042;-79
2022/01/07 04:30:13;;;;;;;17.45;8.02;;;;;;;;;;5004598;28;20358;-78
2022/01/07 04:32:39;;;;;;;16.30;7.53;;;;;;;;;;5004048;28;20111;-78
2022/01/07 04:35:06;;;;;;;15.70;7.70;;;;;;;;;;5022445;28;20053;-79
2022/01/07 04:37:32;;;;;;;17.95;7.45;;;;;;;;;;5021383;28;20065;-79
2022/01/07 04:39:58;;;;;;;17.13;7.70;;;;;;;;;;5003781;28;20516;-79
2022/01/07 04:42:24;;;;;;;15.88;7.03;;;;;;;;;;5002344;28;20042;-76
2022/01/07 04:44:50;;;;;;;17.25;6.88;;;;;;;;;;5017437;28;20042;-78
2022/01/07 04:47:15;;;;;;;15.35;6.90;;;;;;;;;;5019753;28;20049;-79
2022/01/07 04:49:41;;;;;;;16.38;6.93;;;;;;;;;;5025574;28;20053;-78
2022/01/07 04:52:09;;;;;;;10.75;6.47;;;;;;;;;;5039153;28;20096;-79
2022/01/07 04:54:35;;;;;;;18.00;7.70;;;;;;;;;;5020987;28;20064;-78
2022/01/07 04:57:01;;;;;;;14.73;6.43;;;;;;;;;;5038826;28;20045;-79
2022/01/07 04:59:27;;;;;;;22.10;7.55;;;;;;;;;;5037602;28;20493;-78
2022/01/07 05:01:54;;;;;;;17.88;7.00;;;;;;;;;;5038857;28;20125;-79
2022/01/07 05:04:20;;;;;;;15.18;7.15;;;;;;;;;;5023020;28;20045;-78
2022/01/07 05:06:47;;;;;;;17.73;7.00;;;;;;;;;;5021975;28;20034;-79
2022/01/07 05:09:16;;;;;;;18.52;6.80;;;;;;;;;;5022462;28;20041;-78
2022/01/07 05:11:42;;;;;;;14.98;6.57;;;;;;;;;;5025677;28;20052;-79
2022/01/07 05:14:08;;;;;;;14.40;7.25;;;;;;;;;;5026233;28;20041;-79
2022/01/07 05:16:34;;;;;;;20.70;7.43;;;;;;;;;;5040978;28;20052;-80
2022/01/07 05:19:01;;;;;;;14.88;6.65;;;;;;;;;;5040027;28;20140;-79
2022/01/07 05:21:27;;;;;;;17.35;7.57;;;;;;;;;;5039066;28;20045;-79
2022/01/07 05:23:53;;;;;;;19.83;7.15;;;;;;;;;;5038292;28;20037;-78
2022/01/07 05:26:19;;;;;;;13.40;6.88;;;;;;;;;;5039181;28;20065;-79
2022/01/07 05:28:45;;;;;;;14.88;7.10;;;;;;;;;;5035719;28;20049;-75
2022/01/07 05:31:11;;;;;;;14.52;7.63;;;;;;;;;;5019881;28;20048;-76
2022/01/07 05:33:37;;;;;;;15.93;7.30;;;;;;;;;;5037328;28;20397;-75
2022/01/07 05:36:03;;;;;;;15.38;7.07;;;;;;;;;;5037321;28;20041;-76
2022/01/07 05:38:29;;;;;;;15.75;6.95;;;;;;;;;;5036641;28;20037;-76
2022/01/07 05:40:55;;;;;;;18.25;6.30;;;;;;;;;;5022388;28;20045;-76
2022/01/07 05:43:21;;;;;;;14.88;6.85;;;;;;;;;;5046826;28;20076;-77
2022/01/07 05:45:47;;;;;;;17.15;6.53;;;;;;;;;;5039471;28;20487;-79
2022/01/07 05:48:13;;;;;;;15.77;6.63;;;;;;;;;;5041410;28;20060;-80
2022/01/07 05:50:39;;;;;;;17.45;7.28;;;;;;;;;;5042785;28;20083;-78
2022/01/07 05:53:05;;;;;;;13.95;6.45;;;;;;;;;;5042469;28;20112;-80
2022/01/07 05:55:31;;;;;;;18.67;6.65;;;;;;;;;;5044581;28;20456;-77
2022/01/07 05:57:57;;;;;;;14.93;6.50;;;;;;;;;;5033537;28;20041;-78
2022/01/07 06:00:23;;;;;;;12.85;5.38;;;;;;;;;;5031145;28;20041;-79
2022/01/07 06:02:49;;;;;;;16.17;6.63;;;;;;;;;;5065313;28;20048;-80
2022/01/07 06:05:15;;;;;;;12.75;6.10;;;;;;;;;;5031144;28;20033;-80
2022/01/07 06:07:41;;;;;;;14.73;6.47;;;;;;;;;;5064213;28;20037;-77
2022/01/07 06:10:07;;;;;;;16.63;7.60;;;;;;;;;;5045129;28;20047;-79
2022/01/07 06:12:33;;;;;;;16.90;6.50;;;;;;;;;;5048123;28;20067;-79
2022/01/07 06:14:59;;;;;;;17.15;7.03;;;;;;;;;;5042697;28;20029;-76
2022/01/07 06:17:25;;;;;;;16.05;7.25;;;;;;;;;;5042833;28;20523;-78
2022/01/07 06:19:51;;;;;;;14.70;6.82;;;;;;;;;;5044164;28;20037;-80
2022/01/07 06:22:17;;;;;;;16.02;7.68;;;;;;;;;;5029279;28;20460;-79
2022/01/07 06:24:43;;;;;;;14.35;7.00;;;;;;;;;;5030511;28;20040;-77
2022/01/07 06:27:10;;;;;;;15.43;7.30;;;;;;;;;;5028299;28;20315;-77
2022/01/07 06:29:37;;;;;;;21.35;7.35;;;;;;;;;;5046554;28;20063;-78
2022/01/07 06:32:03;;;;;;;12.50;6.40;;;;;;;;;;5043750;28;20048;-77
2022/01/07 06:34:29;;;;;;;23.75;8.00;;;;;;;;;;5045640;28;20056;-76
2022/01/07 06:36:55;;;;;;;13.80;7.03;;;;;;;;;;5033759;28;20041;-76
2022/01/07 06:39:24;;;;;;;14.00;7.15;;;;;;;;;;5036970;28;20029;-76
2022/01/07 06:41:51;;;;;;;13.82;6.78;;;;;;;;;;5051469;28;20037;-76
2022/01/07 06:44:18;;;;;;;16.13;7.32;;;;;;;;;;5054609;28;20040;-76
2022/01/07 06:46:44;;;;;;;15.23;7.50;;;;;;;;;;5062116;28;20033;-77
2022/01/07 06:49:10;;;;;;;15.07;7.57;;;;;;;;;;5028198;28;20717;-79
2022/01/07 06:51:36;;;;;;;14.68;7.40;;;;;;;;;;5049503;28;20040;-79
2022/01/07 06:54:02;;;;;;;17.15;6.70;;;;;;;;;;5025595;28;20044;-76
2022/01/07 06:56:30;;;;;;;15.07;6.97;;;;;;;;;;5043305;28;20069;-77
2022/01/07 06:58:56;;;;;;;13.98;7.15;;;;;;;;;;5047836;28;20056;-79
2022/01/07 07:01:22;;;;;;;12.77;6.65;;;;;;;;;;5046354;28;20029;-76
2022/01/07 07:03:48;;;;;;;15.15;7.00;;;;;;;;;;5045901;28;20367;-78
2022/01/07 07:06:14;;;;;;;15.77;7.03;;;;;;;;;;5029724;28;20048;-83
2022/01/07 07:08:40;;;;;;;15.43;7.20;;;;;;;;;;5041219;28;20041;-83
2022/01/07 07:11:06;;;;;;;13.35;7.05;;;;;;;;;;5036872;28;20045;-82
2022/01/07 07:13:32;;;;;;;14.15;6.93;;;;;;;;;;5047328;28;20126;-81
2022/01/07 07:15:58;;;;;;;14.32;7.10;;;;;;;;;;5063318;28;20116;-81
2022/01/07 07:18:24;;;;;;;13.73;7.35;;;;;;;;;;5062954;28;20040;-82
2022/01/07 07:20:50;;;;;;;13.18;6.82;;;;;;;;;;5032372;28;20095;-81
2022/01/07 07:23:16;;;;;;;11.93;7.07;;;;;;;;;;5030797;28;20353;-80
2022/01/07 07:25:42;;;;;;;15.07;7.65;;;;;;;;;;5070322;28;20044;-82
2022/01/07 07:28:09;;;;;;;14.70;7.22;;;;;;;;;;5027929;28;20071;-82
2022/01/07 07:30:38;;;;;;;12.60;7.07;;;;;;;;;;5046219;28;20025;-79
2022/01/07 07:38:39;;;;;;;16.42;6.55;;;;;;;;;;5047272;28;20098;-80
2022/01/07 07:41:07;;;;;;;11.98;6.18;;;;;;;;;;5045458;28;20093;-80
2022/01/07 07:43:34;;;;;;;11.25;5.82;;;;;;;;;;5046572;28;20044;-80
2022/01/07 07:46:00;;;;;;;11.05;6.25;;;;;;;;;;5047319;28;20436;-78
2022/01/07 07:48:26;;;;;;;9.80;5.97;;;;;;;;;;5047123;28;20430;-80
2022/01/07 07:50:52;;;;;;;12.68;6.55;;;;;;;;;;5045575;28;20041;-82
2022/01/07 07:53:18;;;;;;;10.30;6.13;;;;;;;;;;5046653;28;20111;-81
2022/01/07 07:55:52;;;;;;;13.32;6.57;;;;;;;;;;5028679;28;20041;-81
2022/01/07 07:58:18;;;;;;;10.48;6.50;;;;;;;;;;5029003;28;20056;-82
2022/01/07 08:00:44;;;;;;;10.68;6.07;;;;;;;;;;5043232;28;20436;-80
2022/01/07 08:03:10;;;;;;;11.13;5.97;;;;;;;;;;5044555;28;20163;-80
2022/01/07 08:05:36;;;;;;;13.77;6.10;;;;;;;;;;5028478;28;20033;-81
2022/01/07 08:08:02;;;;;;;12.95;6.68;;;;;;;;;;5062205;28;20083;-82
2022/01/07 08:10:29;;;;;;;14.30;6.82;;;;;;;;;;5028845;28;20048;-82
2022/01/07 08:18:20;;;;;;;17.83;7.32;;;;;;;;;;5057187;28;20045;-77
2022/01/07 08:20:46;;;;;;;14.52;7.78;;;;;;;;;;5028053;28;20456;-80
2022/01/07 08:23:12;;;;;;;14.90;7.03;;;;;;;;;;5025576;28;20064;-80
2022/01/07 08:25:38;;;;;;;15.95;7.85;;;;;;;;;;5042256;28;20037;-80
2022/01/07 08:28:05;;;;;;;13.88;7.22;;;;;;;;;;5059503;28;20179;-80
2022/01/07 08:30:58;;;;;;;16.25;8.07;;;;;;;;;;5041592;28;20055;-81
2022/01/07 08:36:08;;;;;;;13.20;7.63;;;;;;;;;;5044718;28;20045;-81
2022/01/07 08:38:34;;;;;;;16.25;8.40;;;;;;;;;;5042240;28;20033;-81
2022/01/07 08:41:00;;;;;;;17.38;8.35;;;;;;;;;;5025361;28;20450;-80
2022/01/07 08:43:26;;;;;;;12.90;7.45;;;;;;;;;;5027825;28;20033;-78
2022/01/07 08:45:52;;;;;;;14.50;7.20;;;;;;;;;;5053320;28;20037;-80
2022/01/07 08:48:18;;;;;;;14.38;7.32;;;;;;;;;;5055883;28;20044;-79
2022/01/07 08:50:44;;;;;;;12.93;7.40;;;;;;;;;;5041293;28;20041;-80
2022/01/07 08:53:12;;;;;;;11.73;7.05;;;;;;;;;;5041305;28;20119;-78
2022/01/07 08:55:39;;;;;;;14.18;7.90;;;;;;;;;;5041672;28;20477;-79
2022/01/07 08:58:05;;;;;;;15.00;7.60;;;;;;;;;;5024847;28;20044;-81
2022/01/07 09:00:31;;;;;;;16.23;8.13;;;;;;;;;;5029497;28;20040;-80
2022/01/07 09:02:57;;;;;;;15.73;9.15;;;;;;;;;;5035761;28;20051;-79
2022/01/07 09:05:23;;;;;;;14.80;8.10;;;;;;;;;;5037316;28;20043;-78
2022/01/07 09:07:49;;;;;;;15.00;8.50;;;;;;;;;;5027880;28;20437;-80
2022/01/07 09:10:17;;;;;;;15.60;8.15;;;;;;;;;;5024800;28;20162;-80
2022/01/07 09:12:44;;;;;;;15.13;8.32;;;;;;;;;;5024612;28;20033;-80
2022/01/07 09:15:10;;;;;;;15.07;8.80;;;;;;;;;;5058895;28;20107;-80
2022/01/07 09:17:36;;;;;;;21.85;9.10;;;;;;;;;;5024541;28;20060;-80
2022/01/07 09:20:03;;;;;;;19.52;9.32;;;;;;;;;;5040818;28;20037;-82
2022/01/07 09:22:29;;;;;;;18.20;9.27;;;;;;;;;;5058407;28;20032;-81
2022/01/07 09:24:55;;;;;;;16.70;8.80;;;;;;;;;;5024228;28;20079;-79
2022/01/07 09:27:21;;;;;;;17.58;8.57;;;;;;;;;;5041678;28;20102;-82
2022/01/07 09:29:48;;;;;;;20.63;9.05;;;;;;;;;;5024172;28;20060;-81
2022/01/07 09:32:14;;;;;;;18.70;8.45;;;;;;;;;;5057945;28;20079;-80
2022/01/07 09:34:40;;;;;;;14.98;8.15;;;;;;;;;;5040718;28;20080;-82
2022/01/07 09:37:06;;;;;;;14.65;8.25;;;;;;;;;;5059562;28;20051;-82
2022/01/07 09:39:33;;;;;;;14.73;8.02;;;;;;;;;;5043695;28;20037;-81
2022/01/07 09:42:02;;;;;;;15.52;7.43;;;;;;;;;;5026269;28;20033;-79
2022/01/07 09:44:28;;;;;;;13.10;6.80;;;;;;;;;;5041611;28;20037;-81
2022/01/07 09:46:54;;;;;;;15.80;6.82;;;;;;;;;;5049506;28;20377;-80
2022/01/07 09:49:20;;;;;;;12.15;6.32;;;;;;;;;;5033836;28;20048;-78
2022/01/07 09:51:46;;;;;;;11.18;6.25;;;;;;;;;;5038950;28;20044;-76
2022/01/07 09:54:12;;;;;;;15.20;7.15;;;;;;;;;;5057535;28;20020;-79
2022/01/07 09:56:39;;;;;;;15.57;7.15;;;;;;;;;;5027852;28;20044;-78
2022/01/07 09:59:06;;;;;;;14.48;7.07;;;;;;;;;;5041962;28;20052;-80
2022/01/07 10:01:51;;;;;;;14.30;7.22;;;;;;;;;;5030218;28;20037;-82
2022/01/07 10:04:33;;;;;;;13.73;5.95;;;;;;;;;;5045586;28;20051;-82
2022/01/07 10:07:20;;;;;;;12.35;6.65;;;;;;;;;;5046617;28;20033;-81
2022/01/07 10:10:03;;;;;;;14.27;6.72;;;;;;;;;;5030384;28;20040;-80
2022/01/07 10:12:30;;;;;;;12.07;6.35;;;;;;;;;;5045985;28;20433;-81
2022/01/07 10:15:13;;;;;;;15.23;6.70;;;;;;;;;;5031132;28;20100;-81
2022/01/07 10:17:39;;;;;;;15.60;8.10;;;;;;;;;;5049267;28;20035;-80
2022/01/07 10:20:06;;;;;;;13.77;6.70;;;;;;;;;;5032070;28;20044;-82
2022/01/07 10:22:47;;;;;;;12.85;6.45;;;;;;;;;;5029391;28;20037;-79
2022/01/07 10:25:13;;;;;;;14.60;6.38;;;;;;;;;;5045567;28;20036;-82
2022/01/07 10:27:39;;;;;;;13.32;6.47;;;;;;;;;;5028364;28;20044;-81
2022/01/07 10:30:15;;;;;;;12.05;6.65;;;;;;;;;;5027718;28;20044;-81
2022/01/07 10:32:41;;;;;;;13.40;6.68;;;;;;;;;;5027178;28;20048;-82
2022/01/07 10:35:17;;;;;;;14.48;6.45;;;;;;;;;;5045997;28;20135;-83
2022/01/07 10:37:50;;;;;;;12.02;6.78;;;;;;;;;;5032542;28;20041;-78
2022/01/07 10:40:19;;;;;;;13.60;6.60;;;;;;;;;;5070918;28;20037;-79
2022/01/07 10:42:45;;;;;;;13.15;7.00;;;;;;;;;;5069785;28;20084;-83
2022/01/07 10:45:11;;;;;;;14.68;6.30;;;;;;;;;;5052471;28;20449;-81
2022/01/07 10:47:37;;;;;;;14.50;6.85;;;;;;;;;;5038503;28;20037;-82
2022/01/07 10:50:16;;;;;;;11.65;6.70;;;;;;;;;;5037423;28;20102;-81
2022/01/07 10:52:42;;;;;;;13.13;6.30;;;;;;;;;;5057483;28;20080;-79
2022/01/07 10:55:10;;;;;;;12.18;6.18;;;;;;;;;;5033958;28;20094;-83
2022/01/07 10:57:37;;;;;;;13.93;6.25;;;;;;;;;;5035801;28;20037;-83
2022/01/07 11:00:07;;;;;;;11.43;5.47;;;;;;;;;;5041184;28;20037;-85
2022/01/07 11:02:33;;;;;;;9.43;5.00;;;;;;;;;;5035963;28;20120;-82
2022/01/07 11:04:59;;;;;;;9.75;5.35;;;;;;;;;;5050717;28;20037;-84
2022/01/07 11:07:26;;;;;;;10.63;5.55;;;;;;;;;;5034580;28;20037;-81
2022/01/07 11:09:52;;;;;;;9.07;5.35;;;;;;;;;;5033023;28;20044;-82
2022/01/07 11:12:18;;;;;;;10.55;5.60;;;;;;;;;;5049300;28;20041;-81
2022/01/07 11:14:44;;;;;;;10.13;5.35;;;;;;;;;;5049978;28;20041;-82
2022/01/07 11:17:12;;;;;;;12.68;4.75;;;;;;;;;;5033519;28;20365;-81
2022/01/07 11:19:39;;;;;;;13.70;5.18;;;;;;;;;;5032063;28;20049;-80
2022/01/07 11:22:05;;;;;;;10.50;5.60;;;;;;;;;;5036724;28;20069;-82
2022/01/07 11:24:34;;;;;;;12.05;5.85;;;;;;;;;;5047243;28;20037;-80
2022/01/07 11:27:01;;;;;;;9.35;5.28;;;;;;;;;;5054394;28;20094;-82
2022/01/07 11:29:28;;;;;;;10.40;5.13;;;;;;;;;;5047015;28;20464;-81
2022/01/07 11:31:54;;;;;;;11.70;5.72;;;;;;;;;;5027924;28;20067;-78
2022/01/07 11:34:22;;;;;;;10.38;5.72;;;;;;;;;;5045115;28;20418;-78
2022/01/07 11:36:48;;;;;;;10.90;5.50;;;;;;;;;;5065540;28;20109;-79
2022/01/07 11:39:14;;;;;;;9.40;5.32;;;;;;;;;;5066089;28;20132;-79
2022/01/07 11:41:55;;;;;;;11.25;5.20;;;;;;;;;;5062582;28;20040;-79
2022/01/07 11:44:28;;;;;;;9.90;5.75;;;;;;;;;;5026501;28;20041;-79
2022/01/07 11:47:13;;;;;;;8.18;5.50;;;;;;;;;;5042252;28;20041;-80
2022/01/07 11:49:39;;;;;;;11.70;5.75;;;;;;;;;;5041370;28;20060;-79
2022/01/07 11:52:24;;;;;;;11.00;5.70;;;;;;;;;;5044457;28;20090;-80
2022/01/07 11:55:17;;;;;;;11.05;5.65;;;;;;;;;;5062287;28;20098;-80
2022/01/07 11:57:52;;;;;;;13.02;5.90;;;;;;;;;;5055908;28;20041;-78
2022/01/07 12:00:37;;;;;;;12.85;5.88;;;;;;;;;;5060117;28;20379;-78
2022/01/07 12:03:03;;;;;;;8.35;4.90;;;;;;;;;;5041853;28;20059;-79
2022/01/07 12:05:32;;;;;;;12.73;6.45;;;;;;;;;;5027817;28;20041;-79
2022/01/07 12:07:58;;;;;;;9.57;5.30;;;;;;;;;;5043779;28;20102;-81
2022/01/07 12:10:24;;;;;;;11.00;5.75;;;;;;;;;;5026130;28;20123;-79
2022/01/07 12:12:50;;;;;;;11.55;5.68;;;;;;;;;;5026854;28;20033;-80
2022/01/07 12:15:16;;;;;;;12.05;5.63;;;;;;;;;;5028268;28;20318;-80
2022/01/07 12:17:42;;;;;;;13.95;5.68;;;;;;;;;;5053919;28;20077;-79
2022/01/07 12:20:28;;;;;;;10.23;5.80;;;;;;;;;;5077865;28;20093;-78
2022/01/07 12:22:54;;;;;;;11.95;6.05;;;;;;;;;;5071634;28;20041;-77
2022/01/07 12:25:21;;;;;;;10.27;5.43;;;;;;;;;;5051557;28;20045;-79
2022/01/07 12:27:47;;;;;;;9.65;6.00;;;;;;;;;;5025790;28;20060;-81
2022/01/07 12:30:21;;;;;;;10.93;5.43;;;;;;;;;;5045090;28;20037;-77
2022/01/07 12:32:47;;;;;;;9.27;5.03;;;;;;;;;;5062295;28;20033;-81
2022/01/07 12:35:13;;;;;;;7.90;4.72;;;;;;;;;;5027628;28;20460;-80
2022/01/07 12:37:39;;;;;;;12.65;5.40;;;;;;;;;;5042214;28;20033;-80
2022/01/07 12:40:06;;;;;;;9.50;5.32;;;;;;;;;;5045143;28;20048;-80
2022/01/07 12:42:36;;;;;;;8.38;5.35;;;;;;;;;;5027874;28;20120;-80
2022/01/07 12:45:02;;;;;;;8.40;5.22;;;;;;;;;;5045261;28;20044;-81
2022/01/07 12:47:29;;;;;;;10.73;4.95;;;;;;;;;;5028049;28;20033;-79
2022/01/07 12:49:56;;;;;;;8.30;4.78;;;;;;;;;;5043458;28;20492;-80
2022/01/07 12:52:26;;;;;;;9.07;4.82;;;;;;;;;;5063616;28;20448;-81
2022/01/07 12:55:16;;;;;;;7.95;5.00;;;;;;;;;;5027955;28;20072;-79
2022/01/07 12:57:46;;;;;;;8.57;4.80;;;;;;;;;;5062178;28;20459;-81
2022/01/07 13:00:12;;;;;;;9.70;4.93;;;;;;;;;;5061356;28;20091;-80
2022/01/07 13:02:39;;;;;;;9.75;4.80;;;;;;;;;;5059386;28;20052;-80
2022/01/07 13:05:12;;;;;;;14.02;5.80;;;;;;;;;;5042175;28;20120;-80
2022/01/07 13:07:42;;;;;;;8.57;5.20;;;;;;;;;;5043047;28;20233;-79
2022/01/07 13:10:08;;;;;;;11.07;4.95;;;;;;;;;;5043894;28;20364;-80
2022/01/07 13:12:34;;;;;;;11.32;4.43;;;;;;;;;;5026596;28;20041;-79
2022/01/07 13:15:00;;;;;;;9.25;4.80;;;;;;;;;;5043819;28;20035;-79
2022/01/07 13:17:28;;;;;;;11.43;5.25;;;;;;;;;;5036891;28;20033;-80
2022/01/07 13:19:55;;;;;;;11.60;4.68;;;;;;;;;;5039677;28;20045;-77
2022/01/07 13:22:23;;;;;;;8.10;5.00;;;;;;;;;;5039164;28;20021;-79
2022/01/07 13:24:49;;;;;;;9.57;5.00;;;;;;;;;;5035787;28;20400;-79
2022/01/07 13:27:15;;;;;;;10.73;5.25;;;;;;;;;;5042365;28;20048;-81
2022/01/07 13:29:47;;;;;;;9.68;6.03;;;;;;;;;;5026763;28;20033;-78
2022/01/07 13:32:13;;;;;;;12.45;6.15;;;;;;;;;;5025930;28;20033;-79
2022/01/07 13:34:40;;;;;;;9.85;5.45;;;;;;;;;;5026726;28;20040;-79
2022/01/07 13:37:13;;;;;;;10.77;5.72;;;;;;;;;;5031837;28;20052;-79
2022/01/07 13:39:46;;;;;;;11.95;5.95;;;;;;;;;;5043056;28;20440;-79
2022/01/07 13:42:18;;;;;;;13.05;6.40;;;;;;;;;;5026833;28;20036;-80
2022/01/07 13:44:47;;;;;;;10.53;6.10;;;;;;;;;;5028922;28;20041;-80
2022/01/07 13:47:18;;;;;;;13.05;6.45;;;;;;;;;;5059796;28;20037;-81
2022/01/07 13:49:44;;;;;;;12.27;6.57;;;;;;;;;;5026346;28;20112;-79
2022/01/07 13:52:10;;;;;;;13.48;7.63;;;;;;;;;;5026161;28;20130;-80
2022/01/07 13:54:45;;;;;;;17.45;7.93;;;;;;;;;;5042660;28;20124;-79
2022/01/07 13:57:12;;;;;;;15.60;7.07;;;;;;;;;;5042657;28;20052;-80
2022/01/07 13:59:45;;;;;;;9.57;6.50;;;;;;;;;;5026242;28;20110;-82
2022/01/07 14:02:15;;;;;;;18.13;9.10;;;;;;;;;;5046581;28;20033;-81
2022/01/07 14:04:44;;;;;;;12.95;7.05;;;;;;;;;;5026847;28;20068;-81
2022/01/07 14:07:31;;;;;;;15.68;7.53;;;;;;;;;;5041512;28;20037;-82
2022/01/07 14:10:13;;;;;;;14.60;8.00;;;;;;;;;;5026023;28;20395;-81
2022/01/07 14:12:50;;;;;;;12.63;6.30;;;;;;;;;;5043207;28;20443;-81
2022/01/07 14:15:17;;;;;;;11.85;6.95;;;;;;;;;;5027621;28;20068;-80
2022/01/07 14:17:43;;;;;;;13.35;6.90;;;;;;;;;;5047315;28;20033;-80
2022/01/07 14:20:09;;;;;;;10.63;6.25;;;;;;;;;;5047421;28;20044;-80
2022/01/07 14:22:39;;;;;;;9.85;6.15;;;;;;;;;;5029976;28;20037;-82
2022/01/07 14:25:06;;;;;;;14.40;6.72;;;;;;;;;;5046386;28;20052;-81
2022/01/07 14:27:33;;;;;;;10.20;6.70;;;;;;;;;;5045247;28;20036;-81
2022/01/07 14:29:59;;;;;;;9.88;5.10;;;;;;;;;;5044292;28;20124;-80
2022/01/07 14:32:25;;;;;;;13.93;5.22;;;;;;;;;;5028254;28;20072;-81
2022/01/07 14:34:59;;;;;;;12.32;6.28;;;;;;;;;;5044443;28;20044;-82
2022/01/07 14:37:25;;;;;;;13.52;5.78;;;;;;;;;;5028171;28;20044;-81
2022/01/07 14:39:52;;;;;;;14.02;4.85;;;;;;;;;;5046571;28;20368;-81
2022/01/07 14:42:18;;;;;;;8.85;3.25;;;;;;;;;;5046402;28;20041;-80
2022/01/07 14:44:44;;;;;;;5.90;1.75;;;;;;;;;;5028773;28;20048;-81
2022/01/07 14:47:10;;;;;;;8.00;2.00;;;;;;;;;;5028871;28;20037;-82